Little Plymouth, Virginia
Current Conditions -  °F | °C
As of 2:15 AM on Friday 19 Dec 2014 (Local Time) from KFYJ Reporting Station
Overcast Overcast  
Wind Chill: 36°   Ceiling: 10000
Heat Index: 36°   Visibility: 10mi
Dew Point: 26°   Wind: 0mph
Humidity: 67%   Direction: NA
Pressure: 30.15"   Gusts: NA
Location:  37.63°N, 76.79°W
Report Text: KFYJ 190715Z AUTO 00000KT 10SM OVC100 02/M03 A3015 RMK AO2 T00211034
Loading
Personal Weather Stations






























Interactive Weather Map New forecast layout! Learn more

10-Day Weather Forecast

Advertisements
Track Severe Weather on mobile